sensor_id;sensor_type;location;lat;lon;timestamp;pressure;altitude;pressure_sealevel;temperature;humidity
55347;BME280;41218;55.700;38.270;2022-09-03T00:12:51;100283.34;;;6.41;61.92
55347;BME280;41218;55.700;38.270;2022-09-03T00:17:54;100274.47;;;6.35;61.69
55347;BME280;41218;55.700;38.270;2022-09-03T00:23:02;100276.78;;;6.25;61.79
55347;BME280;41218;55.700;38.270;2022-09-03T00:28:16;100305.78;;;6.34;61.85
55347;BME280;41218;55.700;38.270;2022-09-03T00:33:47;100250.50;;;5.89;61.35
55347;BME280;41218;55.700;38.270;2022-09-03T00:39:14;100259.56;;;5.80;61.39
55347;BME280;41218;55.700;38.270;2022-09-03T00:49:50;100340.09;;;6.11;61.46
55347;BME280;41218;55.700;38.270;2022-09-03T00:55:00;100335.09;;;5.95;61.57
55347;BME280;41218;55.700;38.270;2022-09-03T01:00:11;100303.47;;;5.72;61.44
55347;BME280;41218;55.700;38.270;2022-09-03T01:05:34;100331.38;;;5.82;61.65
55347;BME280;41218;55.700;38.270;2022-09-03T01:10:56;100321.19;;;5.66;61.32
55347;BME280;41218;55.700;38.270;2022-09-03T01:16:19;100343.34;;;5.78;61.78
55347;BME280;41218;55.700;38.270;2022-09-03T01:42:18;100301.63;;;5.06;61.47
55347;BME280;41218;55.700;38.270;2022-09-03T01:47:28;100347.00;;;5.30;61.81
55347;BME280;41218;55.700;38.270;2022-09-03T01:57:55;100322.06;;;4.91;61.66
55347;BME280;41218;55.700;38.270;2022-09-03T02:03:01;100340.28;;;4.96;61.55
55347;BME280;41218;55.700;38.270;2022-09-03T02:08:07;100331.06;;;4.83;61.98
55347;BME280;41218;55.700;38.270;2022-09-03T02:25:47;100395.09;;;5.05;61.68
55347;BME280;41218;55.700;38.270;2022-09-03T02:30:53;100358.09;;;4.76;61.27
55347;BME280;41218;55.700;38.270;2022-09-03T02:35:54;100355.16;;;4.64;61.37
55347;BME280;41218;55.700;38.270;2022-09-03T02:40:57;100362.88;;;4.61;61.67
55347;BME280;41218;55.700;38.270;2022-09-03T02:46:16;100377.19;;;4.58;62.07
55347;BME280;41218;55.700;38.270;2022-09-03T02:51:18;100415.00;;;4.79;62.05
55347;BME280;41218;55.700;38.270;2022-09-03T02:56:21;100399.25;;;4.62;61.67
55347;BME280;41218;55.700;38.270;2022-09-03T03:01:27;100416.06;;;4.69;61.52
55347;BME280;41218;55.700;38.270;2022-09-03T03:06:27;100380.22;;;4.48;61.90
55347;BME280;41218;55.700;38.270;2022-09-03T03:11:28;100402.25;;;4.52;61.57
55347;BME280;41218;55.700;38.270;2022-09-03T03:16:32;100391.28;;;4.43;61.86
55347;BME280;41218;55.700;38.270;2022-09-03T03:21:33;100442.81;;;4.72;61.70
55347;BME280;41218;55.700;38.270;2022-09-03T03:26:34;100455.09;;;4.75;61.71
55347;BME280;41218;55.700;38.270;2022-09-03T03:31:35;100418.53;;;4.48;61.82
55347;BME280;41218;55.700;38.270;2022-09-03T03:36:36;100409.00;;;4.46;61.86
55347;BME280;41218;55.700;38.270;2022-09-03T03:41:37;100457.34;;;4.73;62.03
55347;BME280;41218;55.700;38.270;2022-09-03T03:46:39;100415.91;;;4.43;62.03
55347;BME280;41218;55.700;38.270;2022-09-03T03:51:40;100469.41;;;4.72;61.99
55347;BME280;41218;55.700;38.270;2022-09-03T03:56:41;100460.44;;;4.57;62.21
55347;BME280;41218;55.700;38.270;2022-09-03T04:01:41;100439.44;;;4.44;62.26
55347;BME280;41218;55.700;38.270;2022-09-03T04:06:42;100452.03;;;4.54;62.57
55347;BME280;41218;55.700;38.270;2022-09-03T04:11:43;100487.63;;;4.76;62.65
55347;BME280;41218;55.700;38.270;2022-09-03T04:16:44;100425.06;;;4.38;62.79
55347;BME280;41218;55.700;38.270;2022-09-03T04:21:46;100484.06;;;4.76;63.35
55347;BME280;41218;55.700;38.270;2022-09-03T04:26:47;100425.31;;;4.51;63.48
55347;BME280;41218;55.700;38.270;2022-09-03T04:31:49;100439.22;;;4.63;64.16
55347;BME280;41218;55.700;38.270;2022-09-03T04:37:08;100448.16;;;4.77;64.97
55347;BME280;41218;55.700;38.270;2022-09-03T04:42:10;100479.25;;;5.04;64.93
55347;BME280;41218;55.700;38.270;2022-09-03T04:47:10;100425.19;;;4.87;65.64
55347;BME280;41218;55.700;38.270;2022-09-03T04:52:11;100479.25;;;5.35;66.09
55347;BME280;41218;55.700;38.270;2022-09-03T04:57:12;100461.66;;;5.36;66.68
55347;BME280;41218;55.700;38.270;2022-09-03T05:02:12;100482.88;;;5.71;66.63
55347;BME280;41218;55.700;38.270;2022-09-03T05:07:13;100449.81;;;5.76;66.93
55347;BME280;41218;55.700;38.270;2022-09-03T05:12:14;100492.50;;;6.26;67.11
55347;BME280;41218;55.700;38.270;2022-09-03T05:17:16;100485.72;;;6.49;67.25
55347;BME280;41218;55.700;38.270;2022-09-03T05:22:16;100502.81;;;6.81;67.60
55347;BME280;41218;55.700;38.270;2022-09-03T05:27:20;100443.53;;;6.71;67.73
55347;BME280;41218;55.700;38.270;2022-09-03T05:32:21;100459.78;;;6.94;67.70
55347;BME280;41218;55.700;38.270;2022-09-03T05:37:22;100487.16;;;7.29;67.49
55347;BME280;41218;55.700;38.270;2022-09-03T05:42:22;100495.16;;;7.51;67.78
55347;BME280;41218;55.700;38.270;2022-09-03T05:47:23;100525.53;;;7.93;67.19
55347;BME280;41218;55.700;38.270;2022-09-03T05:52:24;100502.03;;;7.96;67.28
55347;BME280;41218;55.700;38.270;2022-09-03T05:57:24;100533.84;;;8.35;67.10
55347;BME280;41218;55.700;38.270;2022-09-03T06:02:25;100493.25;;;8.23;67.21
55347;BME280;41218;55.700;38.270;2022-09-03T06:07:28;100506.50;;;8.51;66.84
55347;BME280;41218;55.700;38.270;2022-09-03T06:12:29;100531.00;;;8.86;66.41
55347;BME280;41218;55.700;38.270;2022-09-03T06:17:30;100514.38;;;8.95;66.18
55347;BME280;41218;55.700;38.270;2022-09-03T06:22:30;100523.25;;;9.13;66.10
55347;BME280;41218;55.700;38.270;2022-09-03T06:27:31;100550.22;;;9.53;65.97
55347;BME280;41218;55.700;38.270;2022-09-03T06:32:32;100523.78;;;9.64;64.94
55347;BME280;41218;55.700;38.270;2022-09-03T06:37:45;100519.19;;;9.68;64.73
55347;BME280;41218;55.700;38.270;2022-09-03T06:43:02;100537.00;;;9.95;64.42
55347;BME280;41218;55.700;38.270;2022-09-03T06:48:05;100508.00;;;9.89;64.10
55347;BME280;41218;55.700;38.270;2022-09-03T06:53:12;100515.81;;;10.12;63.89
55347;BME280;41218;55.700;38.270;2022-09-03T06:58:12;100514.63;;;10.25;63.11
55347;BME280;41218;55.700;38.270;2022-09-03T07:03:13;100542.34;;;10.53;62.61
55347;BME280;41218;55.700;38.270;2022-09-03T07:08:17;100501.25;;;10.39;62.20
55347;BME280;41218;55.700;38.270;2022-09-03T07:13:17;100562.47;;;10.94;61.82
55347;BME280;41218;55.700;38.270;2022-09-03T07:18:26;100498.81;;;10.78;61.28
55347;BME280;41218;55.700;38.270;2022-09-03T07:23:33;100559.59;;;11.35;60.75
55347;BME280;41218;55.700;38.270;2022-09-03T07:28:36;100515.94;;;11.28;59.65
55347;BME280;41218;55.700;38.270;2022-09-03T07:33:46;100546.94;;;11.66;59.29
55347;BME280;41218;55.700;38.270;2022-09-03T07:45:08;100552.47;;;12.13;57.75
55347;BME280;41218;55.700;38.270;2022-09-03T07:50:26;100552.06;;;12.31;57.50
55347;BME280;41218;55.700;38.270;2022-09-03T08:01:24;100556.47;;;12.51;56.76
55347;BME280;41218;55.700;38.270;2022-09-03T08:06:42;100537.47;;;12.34;57.14
55347;BME280;41218;55.700;38.270;2022-09-03T08:11:43;100537.69;;;12.45;56.80
55347;BME280;41218;55.700;38.270;2022-09-03T08:16:45;100531.44;;;12.48;56.34
55347;BME280;41218;55.700;38.270;2022-09-03T08:21:49;100505.88;;;12.38;55.98
55347;BME280;41218;55.700;38.270;2022-09-03T08:27:17;100555.16;;;12.84;54.68
55347;BME280;41218;55.700;38.270;2022-09-03T08:32:50;100508.50;;;12.70;53.22
55347;BME280;41218;55.700;38.270;2022-09-03T08:38:08;100518.59;;;12.78;52.93
55347;BME280;41218;55.700;38.270;2022-09-03T08:43:17;100556.97;;;12.96;52.94
55347;BME280;41218;55.700;38.270;2022-09-03T08:48:26;100550.63;;;12.95;52.88
55347;BME280;41218;55.700;38.270;2022-09-03T09:00:04;100500.50;;;13.08;52.11
55347;BME280;41218;55.700;38.270;2022-09-03T09:11:54;100546.91;;;13.73;51.07
55347;BME280;41218;55.700;38.270;2022-09-03T09:22:53;100536.56;;;13.73;49.63
55347;BME280;41218;55.700;38.270;2022-09-03T09:28:37;100516.41;;;13.53;48.97
55347;BME280;41218;55.700;38.270;2022-09-03T09:33:46;100541.28;;;13.69;49.33
55347;BME280;41218;55.700;38.270;2022-09-03T09:39:22;100528.31;;;13.77;48.94
55347;BME280;41218;55.700;38.270;2022-09-03T09:44:25;100540.72;;;13.83;48.63
55347;BME280;41218;55.700;38.270;2022-09-03T09:55:13;100546.91;;;13.73;47.62
55347;BME280;41218;55.700;38.270;2022-09-03T10:00:27;100507.84;;;13.39;47.67
55347;BME280;41218;55.700;38.270;2022-09-03T10:05:30;100548.47;;;13.74;47.71
55347;BME280;41218;55.700;38.270;2022-09-03T10:16:28;100514.03;;;14.05;47.28
55347;BME280;41218;55.700;38.270;2022-09-03T10:22:20;100539.34;;;14.27;45.94
55347;BME280;41218;55.700;38.270;2022-09-03T10:27:29;100530.22;;;14.26;46.58
55347;BME280;41218;55.700;38.270;2022-09-03T10:33:09;100532.19;;;14.26;46.14
55347;BME280;41218;55.700;38.270;2022-09-03T10:49:51;100491.38;;;14.03;45.82
55347;BME280;41218;55.700;38.270;2022-09-03T10:56:06;100510.63;;;14.15;44.75
55347;BME280;41218;55.700;38.270;2022-09-03T11:19:15;100514.16;;;14.73;43.82
55347;BME280;41218;55.700;38.270;2022-09-03T11:24:22;100498.25;;;14.73;43.25
55347;BME280;41218;55.700;38.270;2022-09-03T11:35:26;100485.75;;;14.94;42.53
55347;BME280;41218;55.700;38.270;2022-09-03T11:41:12;100506.47;;;14.96;41.73
55347;BME280;41218;55.700;38.270;2022-09-03T11:46:40;100487.66;;;14.86;42.12
55347;BME280;41218;55.700;38.270;2022-09-03T11:51:58;100462.00;;;14.66;42.07
55347;BME280;41218;55.700;38.270;2022-09-03T11:57:39;100467.84;;;14.57;42.16
55347;BME280;41218;55.700;38.270;2022-09-03T12:02:46;100454.78;;;14.58;42.35
55347;BME280;41218;55.700;38.270;2022-09-03T12:18:54;100462.59;;;14.82;42.11
55347;BME280;41218;55.700;38.270;2022-09-03T12:24:01;100442.66;;;14.77;42.17
55347;BME280;41218;55.700;38.270;2022-09-03T12:29:02;100449.38;;;14.76;42.21
55347;BME280;41218;55.700;38.270;2022-09-03T12:34:22;100471.81;;;14.90;41.84
55347;BME280;41218;55.700;38.270;2022-09-03T12:39:26;100481.00;;;14.94;42.04
55347;BME280;41218;55.700;38.270;2022-09-03T12:44:38;100441.38;;;14.71;41.98
55347;BME280;41218;55.700;38.270;2022-09-03T12:49:47;100421.13;;;14.70;42.03
55347;BME280;41218;55.700;38.270;2022-09-03T12:55:27;100465.78;;;15.26;41.53
55347;BME280;41218;55.700;38.270;2022-09-03T13:00:47;100429.88;;;15.13;41.01
55347;BME280;41218;55.700;38.270;2022-09-03T13:06:11;100425.47;;;15.09;40.36
55347;BME280;41218;55.700;38.270;2022-09-03T13:11:31;100427.88;;;15.14;40.36
55347;BME280;41218;55.700;38.270;2022-09-03T13:33:49;100424.72;;;15.15;40.27
55347;BME280;41218;55.700;38.270;2022-09-03T13:39:01;100457.41;;;15.26;40.58
55347;BME280;41218;55.700;38.270;2022-09-03T13:50:49;100432.16;;;15.00;41.09
55347;BME280;41218;55.700;38.270;2022-09-03T13:56:07;100411.66;;;14.82;41.42
55347;BME280;41218;55.700;38.270;2022-09-03T14:01:57;100446.50;;;15.06;41.58
55347;BME280;41218;55.700;38.270;2022-09-03T14:07:10;100398.88;;;14.74;41.79
55347;BME280;41218;55.700;38.270;2022-09-03T14:24:15;100378.53;;;14.66;41.95
55347;BME280;41218;55.700;38.270;2022-09-03T14:29:59;100422.94;;;14.93;41.97
55347;BME280;41218;55.700;38.270;2022-09-03T14:40:44;100384.16;;;14.73;42.19
55347;BME280;41218;55.700;38.270;2022-09-03T15:01:39;100364.34;;;14.41;42.48
55347;BME280;41218;55.700;38.270;2022-09-03T15:06:51;100401.59;;;14.67;43.12
55347;BME280;41218;55.700;38.270;2022-09-03T15:28:17;100394.56;;;14.42;44.58
55347;BME280;41218;55.700;38.270;2022-09-03T15:33:32;100390.81;;;14.28;45.33
55347;BME280;41218;55.700;38.270;2022-09-03T15:39:01;100397.97;;;14.29;45.73
55347;BME280;41218;55.700;38.270;2022-09-03T15:44:07;100386.63;;;14.11;46.02
55347;BME280;41218;55.700;38.270;2022-09-03T15:54:36;100383.28;;;13.98;46.39
55347;BME280;41218;55.700;38.270;2022-09-03T16:00:11;100382.81;;;13.92;46.91
55347;BME280;41218;55.700;38.270;2022-09-03T16:05:18;100341.44;;;13.53;47.35
55347;BME280;41218;55.700;38.270;2022-09-03T16:10:21;100389.81;;;13.79;47.25
55347;BME280;41218;55.700;38.270;2022-09-03T16:15:48;100387.34;;;13.74;48.15
55347;BME280;41218;55.700;38.270;2022-09-03T16:26:03;100348.66;;;13.31;48.42
55347;BME280;41218;55.700;38.270;2022-09-03T16:57:48;100423.59;;;13.08;49.83
55347;BME280;41218;55.700;38.270;2022-09-03T17:03:02;100427.91;;;13.06;50.09
55347;BME280;41218;55.700;38.270;2022-09-03T17:24:40;100383.59;;;12.43;50.73
55347;BME280;41218;55.700;38.270;2022-09-03T17:35:33;100422.50;;;12.47;51.15
55347;BME280;41218;55.700;38.270;2022-09-03T17:46:14;100406.53;;;12.21;51.44
55347;BME280;41218;55.700;38.270;2022-09-03T17:51:33;100417.09;;;12.15;51.76
55347;BME280;41218;55.700;38.270;2022-09-03T17:56:48;100419.66;;;12.05;51.96
55347;BME280;41218;55.700;38.270;2022-09-03T18:01:58;100358.06;;;11.56;52.00
55347;BME280;41218;55.700;38.270;2022-09-03T18:18:11;100378.44;;;11.48;52.60
55347;BME280;41218;55.700;38.270;2022-09-03T18:23:27;100380.75;;;11.46;52.54
55347;BME280;41218;55.700;38.270;2022-09-03T18:28:53;100390.59;;;11.43;52.64
55347;BME280;41218;55.700;38.270;2022-09-03T18:34:20;100436.00;;;11.58;52.32
55347;BME280;41218;55.700;38.270;2022-09-03T18:39:39;100383.91;;;11.29;52.59
55347;BME280;41218;55.700;38.270;2022-09-03T18:45:18;100414.69;;;11.43;53.04
55347;BME280;41218;55.700;38.270;2022-09-03T18:56:45;100370.81;;;11.10;53.89
55347;BME280;41218;55.700;38.270;2022-09-03T19:03:15;100366.88;;;11.11;53.81
55347;BME280;41218;55.700;38.270;2022-09-03T19:08:21;100413.44;;;11.40;54.19
55347;BME280;41218;55.700;38.270;2022-09-03T19:13:42;100382.56;;;11.22;53.56
55347;BME280;41218;55.700;38.270;2022-09-03T19:19:15;100404.97;;;11.33;54.27
55347;BME280;41218;55.700;38.270;2022-09-03T19:24:38;100393.88;;;11.33;53.99
55347;BME280;41218;55.700;38.270;2022-09-03T19:30:05;100381.03;;;11.25;54.35
55347;BME280;41218;55.700;38.270;2022-09-03T19:35:40;100366.16;;;11.14;54.93
55347;BME280;41218;55.700;38.270;2022-09-03T19:41:26;100377.47;;;11.25;55.29
55347;BME280;41218;55.700;38.270;2022-09-03T19:46:54;100392.13;;;11.25;55.04
55347;BME280;41218;55.700;38.270;2022-09-03T19:52:37;100378.56;;;11.20;55.14
55347;BME280;41218;55.700;38.270;2022-09-03T19:58:00;100345.47;;;10.92;54.86
55347;BME280;41218;55.700;38.270;2022-09-03T20:03:20;100382.97;;;11.05;55.09
55347;BME280;41218;55.700;38.270;2022-09-03T20:08:39;100385.53;;;10.98;55.09
55347;BME280;41218;55.700;38.270;2022-09-03T20:13:58;100356.88;;;10.74;55.22
55347;BME280;41218;55.700;38.270;2022-09-03T20:30:07;100331.91;;;10.39;56.52
55347;BME280;41218;55.700;38.270;2022-09-03T20:40:44;100330.25;;;10.22;56.29
55347;BME280;41218;55.700;38.270;2022-09-03T20:51:21;100324.84;;;10.13;56.50
55347;BME280;41218;55.700;38.270;2022-09-03T20:57:12;100335.00;;;10.09;56.58
55347;BME280;41218;55.700;38.270;2022-09-03T21:12:44;100339.03;;;10.12;56.93
55347;BME280;41218;55.700;38.270;2022-09-03T21:23:23;100337.56;;;10.02;56.92
55347;BME280;41218;55.700;38.270;2022-09-03T21:28:35;100336.69;;;9.98;57.22
55347;BME280;41218;55.700;38.270;2022-09-03T21:33:38;100364.69;;;10.12;56.91
55347;BME280;41218;55.700;38.270;2022-09-03T21:38:40;100332.44;;;9.88;57.21
55347;BME280;41218;55.700;38.270;2022-09-03T21:43:51;100351.00;;;10.03;58.13
55347;BME280;41218;55.700;38.270;2022-09-03T21:49:09;100332.91;;;9.90;57.68
55347;BME280;41218;55.700;38.270;2022-09-03T21:54:41;100330.38;;;9.85;57.86
55347;BME280;41218;55.700;38.270;2022-09-03T22:05:04;100337.88;;;9.85;57.43
55347;BME280;41218;55.700;38.270;2022-09-03T22:10:17;100381.38;;;10.16;57.51
55347;BME280;41218;55.700;38.270;2022-09-03T22:15:20;100336.81;;;9.89;57.46
55347;BME280;41218;55.700;38.270;2022-09-03T22:20:23;100373.09;;;10.03;57.67
55347;BME280;41218;55.700;38.270;2022-09-03T22:30:39;100343.88;;;9.74;57.91
55347;BME280;41218;55.700;38.270;2022-09-03T22:46:37;100347.00;;;9.60;59.15
55347;BME280;41218;55.700;38.270;2022-09-03T22:57:14;100402.38;;;9.92;58.89
55347;BME280;41218;55.700;38.270;2022-09-03T23:02:26;100381.13;;;9.80;59.83
55347;BME280;41218;55.700;38.270;2022-09-03T23:13:15;100333.97;;;9.45;60.08
55347;BME280;41218;55.700;38.270;2022-09-03T23:18:28;100406.78;;;9.81;59.56
55347;BME280;41218;55.700;38.270;2022-09-03T23:23:41;100357.41;;;9.51;59.55
55347;BME280;41218;55.700;38.270;2022-09-03T23:28:49;100388.06;;;9.62;59.44
55347;BME280;41218;55.700;38.270;2022-09-03T23:33:58;100357.16;;;9.44;59.28
55347;BME280;41218;55.700;38.270;2022-09-03T23:39:27;100353.75;;;9.35;60.01
55347;BME280;41218;55.700;38.270;2022-09-03T23:44:58;100380.16;;;9.48;59.69
